• Join FlightAware (Why Join?)
  • Login
  • US Flag 
11:46AM EDT


 

Airport Tracker/Info


-or-


 

Live Flight TrackerFlight Track Log ✈ N790CA ✈ 02-May-2013 ✈ KILM - KEWB

Flight Track Log - Related Links

Times and Time Zones

All times are in EDT time to prevent confusion due to time zone crossing. See the N790CA flight status page for this flight to view local times or setup timezone preferences in your user account.

Time Position Orientation Groundspeed Altitude Reporting Facility
EDT Latitude Longitude Course Direction KTS MPH feet Rate Location/Type
11:38AM 34.3319 -77.8528 19° North 133 153 3,300  Level Washington Center
11:39AM 34.3678 -77.8364 21° North 133 153 5,000 1,620 Climbing Washington Center
11:40AM 34.4078 -77.8172 22° Northeast 139 160 6,600 1,560 Climbing Washington Center
11:41AM 34.4353 -77.8003 27° Northeast 139 160 8,100 1,380 Climbing Washington Center
11:42AM 34.4753 -77.7789 24° Northeast 144 166 9,500 1,440 Climbing Washington Center
11:43AM 34.5955 -77.6903 27° Northeast  Level FlightAware Approximate
11:43AM 34.5133 -77.7572 25° Northeast 144 166 11,000  Level Washington Center
11:44AM 34.5533 -77.7331 26° Northeast 151 174 12,600 1,560 Climbing Washington Center
11:45AM 34.5933 -77.7089 26° Northeast 151 174 14,200 1,380 Climbing Washington Center
11:46AM 34.6333 -77.6844 27° Northeast 156 180 15,500 1,380 Climbing Washington Center
11:47AM 34.6714 -77.6628 25° Northeast 156 180 17,000 1,260 Climbing Washington Center
11:48AM 34.7136 -77.6386 25° Northeast 156 180 18,000 1,140 Climbing Washington Center
11:49AM 34.7556 -77.6119 28° Northeast 156 180 19,400 1,320 Climbing Washington Center
11:50AM 34.8000 -77.5825 29° Northeast 156 180 20,700 1,320 Climbing Washington Center
11:51AM 34.8422 -77.5533 30° Northeast 156 180 22,100 1,260 Climbing Washington Center
11:52AM 34.8886 -77.5292 23° Northeast 161 185 23,300 1,140 Climbing Washington Center
11:53AM 34.9328 -77.4972 31° Northeast 173 199 24,400 1,080 Climbing Washington Center
11:54AM 34.9811 -77.4706 24° Northeast 178 205 25,500 1,020 Climbing Washington Center
11:55AM 35.0297 -77.4411 26° Northeast 183 211 26,500 960 Climbing Washington Center
11:56AM 35.0781 -77.4117 26° Northeast 183 211 27,500 900 Climbing Washington Center
11:57AM 35.1286 -77.3772 29° Northeast 188 216 28,400 780 Climbing Washington Center
11:58AM 35.1772 -77.3481 26° Northeast 188 216 29,100 720 Climbing Washington Center
11:59AM 35.2278 -77.3186 25° Northeast 193 222 29,900 720 Climbing Washington Center
12:00PM 35.2803 -77.2867 26° Northeast 198 228 30,600 540 Climbing Washington Center
12:01PM 35.3328 -77.2544 27° Northeast 198 228 31,000 180 Climbing Washington Center
12:02PM 35.3897 -77.2175 28° Northeast 205 236 31,000  Level Washington Center
12:03PM 35.4508 -77.1806 26° Northeast 221 254 31,000  Level Washington Center
12:04PM 35.5139 -77.1436 25° Northeast 235 270 31,000  Level Washington Center
12:05PM 35.5789 -77.1014 28° Northeast 246 283 31,000  Level Washington Center
12:06PM 35.6400 -77.0617 28° Northeast 246 283 31,000  Level Washington Center
12:07PM 35.7031 -77.0192 29° Northeast 251 289 31,000  Level Washington Center
12:08PM 35.7725 -76.9794 25° Northeast 256 295 31,000  Level Washington Center
12:09PM 35.8356 -76.9397 27° Northeast 261 300 31,000  Level Washington Center
12:10PM 35.9006 -76.8947 29° Northeast 261 300 31,000  Level Washington Center
12:11PM 35.9678 -76.8572 24° Northeast 261 300 31,000  Level Washington Center
12:12PM 36.0331 -76.8147 28° Northeast 261 300 31,000  Level Washington Center
12:13PM 36.1003 -76.7744 26° Northeast 261 300 31,000  Level Washington Center
12:14PM 36.1653 -76.7317 28° Northeast 261 300 31,000  Level Washington Center
12:15PM 36.2344 -76.6917 25° Northeast 261 300 31,000  Level Washington Center
12:16PM 36.2994 -76.6486 28° Northeast 261 300 31,000  Level Washington Center
12:17PM 36.3667 -76.6083 26° Northeast 261 300 31,000  Level Washington Center
12:18PM 36.4339 -76.5653 27° Northeast 261 300 31,000  Level Washington Center
12:19PM 36.5031 -76.5197 28° Northeast 261 300 31,000  Level Washington Center
12:20PM 36.5681 -76.4789 27° Northeast 261 300 31,000  Level Washington Center
12:21PM 36.6392 -76.4383 25° Northeast 261 300 31,000  Level Washington Center
12:22PM 36.7061 -76.3925 29° Northeast 261 300 31,000  Level Washington Center
12:23PM 36.7775 -76.3414 30° Northeast 261 300 31,000  Level Washington Center
12:24PM 36.8444 -76.2978 28° Northeast 261 300 31,000  Level Washington Center
12:25PM 36.9072 -76.2594 26° Northeast 261 300 31,000  Level Washington Center
12:26PM 36.9722 -76.2158 28° Northeast 261 300 31,000  Level Washington Center
12:27PM 37.0414 -76.1722 27° Northeast 261 300 31,000  Level Washington Center
12:28PM 37.1144 -76.1311 24° Northeast 272 313 31,000  Level Washington Center
12:29PM 37.1814 -76.0872 28° Northeast 272 313 31,000  Level Washington Center
12:30PM 37.2506 -76.0433 27° Northeast 272 313 31,000  Level Washington Center
12:31PM 37.3194 -75.9992 27° Northeast 272 313 31,000  Level Washington Center
12:32PM 37.3864 -75.9553 28° Northeast 267 307 31,000  Level Washington Center
12:33PM 37.4511 -75.9111 28° Northeast 267 307 31,000  Level Washington Center
12:34PM 37.5181 -75.8667 28° Northeast 261 300 31,000  Level Washington Center
12:35PM 37.5847 -75.8225 28° Northeast 261 300 31,000  Level Washington Center
12:36PM 37.6494 -75.7781 29° Northeast 261 300 31,000  Level Washington Center
12:37PM 37.7142 -75.7389 26° Northeast 261 300 31,000  Level Washington Center
12:38PM 37.7789 -75.6942 29° Northeast 261 300 31,000  Level Washington Center
12:39PM 37.8436 -75.6522 27° Northeast 261 300 31,000  Level Washington Center
12:40PM 37.9103 -75.6103 26° Northeast 261 300 31,000  Level Washington Center
12:41PM 37.9750 -75.5681 27° Northeast 261 300 31,000  Level Washington Center
12:42PM 38.0356 -75.5181 33° Northeast 261 300 31,000  Level Washington Center
12:43PM 38.0897 -75.4544 43° Northeast 261 300 31,000  Level Washington Center
12:44PM 38.1481 -75.3964 38° Northeast 261 300 31,000  Level Washington Center
12:45PM 38.2061 -75.3303 42° Northeast 261 300 31,000  Level Washington Center
12:46PM 38.2622 -75.2744 38° Northeast 254 292 31,000  Level Washington Center
12:47PM 38.3081 -75.2239 41° Northeast 254 292 31,000  Level Washington Center
12:48PM 38.3642 -75.1547 44° Northeast 254 292 31,000  Level Washington Center
12:49PM 38.4203 -75.1014 37° Northeast 259 298 31,000  Level Washington Center
12:50PM 38.4761 -75.0375 42° Northeast 259 298 31,000  Level Washington Center
12:52PM 38.5883 -74.9225 39° Northeast 254 292 31,000  Level Washington Center
12:53PM 38.6419 -74.8633 41° Northeast 254 292 31,000  Level Washington Center
12:54PM 38.6958 -74.8069 39° Northeast 254 292 31,000  Level Washington Center
12:55PM 38.7519 -74.7478 39° Northeast 254 292 31,000  Level Washington Center
12:57PM 38.8251 -74.6684 40° Northeast  Level FlightAware Approximate
12:57PM 38.8614 -74.6292 40° Northeast 254 292 31,000  Level Washington Center
12:58PM 38.9150 -74.5697 41° Northeast 254 292 31,000  Level Washington Center
12:59PM 38.9769 -74.5047 39° Northeast 254 292 31,000  Level Washington Center
01:00PM 39.0306 -74.4453 41° Northeast 254 292 31,000  Level Washington Center
01:01PM 39.0844 -74.3883 39° Northeast 254 292 31,000  Level Washington Center
01:02PM 39.1358 -74.3286 42° Northeast 254 292 31,000  Level Washington Center
01:03PM 39.1914 -74.2714 39° Northeast 254 292 31,000  Level Washington Center
01:05PM 39.2592 -74.1944 41° Northeast 263 303 31,000  Level Boston Center
01:06PM 39.3225 -74.1239 41° Northeast 263 303 31,000  Level Boston Center
01:07PM 39.3756 -74.0633 41° Northeast 263 303 31,000  Level Boston Center
01:08PM 39.4306 -74.0058 39° Northeast 258 297 31,000  Level Boston Center
01:09PM 39.4833 -73.9478 40° Northeast 258 297 31,000  Level Boston Center
01:10PM 39.5364 -73.8897 40° Northeast 258 297 31,000  Level Boston Center
01:11PM 39.5869 -73.8317 42° Northeast 253 291 31,000  Level Boston Center
01:12PM 39.6461 -73.7656 41° Northeast 253 291 31,000  Level Boston Center
01:13PM 39.6906 -73.7178 40° Northeast 246 283 31,000  Level Boston Center
01:14PM 39.7517 -73.6461 42° Northeast 246 283 31,000  Level Boston Center
01:15PM 39.8128 -73.5689 44° Northeast 239 275 31,000  Level Boston Center
01:16PM 39.8594 -73.5050 46° Northeast 239 275 31,000  Level Boston Center
01:17PM 39.9078 -73.4408 46° Northeast 245 282 31,000 -300 Level Boston Center
01:18PM 39.9564 -73.3819 43° Northeast 245 282 30,400 -720 Descending Boston Center
01:19PM 40.0111 -73.3122 44° Northeast 255 293 29,500 -960 Descending Boston Center
01:20PM 40.0761 -73.2236 46° Northeast 261 300 28,300 -1,200 Descending Boston Center
01:21PM 40.1331 -73.1511 44° Northeast 268 308 27,200 -1,080 Descending Boston Center
01:22PM 40.1897 -73.0756 46° Northeast 274 315 26,200 -1,020 Descending Boston Center
01:23PM 40.2464 -72.9975 46° Northeast 281 323 25,200 -600 Descending Boston Center
01:24PM 40.2989 -72.9269 46° Northeast 281 323 25,000 -300 Descending Boston Center
01:25PM 40.3492 -72.8594 46° Northeast 275 316 24,700 -600 Descending Boston Center
01:26PM 40.4033 -72.7861 46° Northeast 269 310 23,800 -900 Descending Boston Center
01:27PM 40.4600 -72.7156 43° Northeast 274 315 22,900 -900 Descending Boston Center
01:28PM 40.4997 -72.6611 46° Northeast 274 315 22,000 -1,140 Descending Boston Center
01:29PM 40.5622 -72.5711 48° Northeast 274 315 20,700 -1,200 Descending Boston Center
01:30PM 40.6186 -72.5003 44° Northeast 274 315 19,600 -1,140 Descending Boston Center
01:31PM 40.6686 -72.4319 46° Northeast 274 315 18,500 -900 Descending Boston Center
01:32PM 40.7228 -72.3606 45° Northeast 274 315 17,900 -900 Descending Boston Center
01:33PM 40.7728 -72.2922 46° Northeast 269 310 16,700 -1,200 Descending Boston Center
01:34PM 40.8247 -72.2233 45° Northeast 269 310 15,500 -1,200 Descending Boston Center
01:34PM 40.8414 -72.2042 41° Northeast 263 303 15,100 -1,140 Descending Boston Center
01:35PM 40.8744 -72.1547 49° Northeast 263 303 14,400 -1,200 Descending Boston Center
01:36PM 40.9203 -72.1022 41° Northeast 265 305 13,300 -1,200 Descending Boston Center
01:37PM 40.9742 -72.0250 47° Northeast 261 300 12,100 -1,080 Descending Boston Center
01:38PM 41.0136 -71.9697 47° Northeast 256 295 11,300 -960 Descending Boston Center
01:39PM 41.0592 -71.8978 50° Northeast 253 291 10,400 -900 Descending Boston Center
01:40PM 41.1067 -71.8342 45° Northeast 251 289 9,500 -900 Descending Boston Center
01:41PM 41.1522 -71.7675 48° Northeast 243 280 8,600 -960 Descending Boston Center
01:42PM 41.1994 -71.6897 51° Northeast 238 274 7,500 -960 Descending Boston Center
01:43PM 41.2408 -71.6258 49° Northeast 238 274 6,600 -960 Descending Boston Center
01:44PM 41.2800 -71.5700 47° Northeast 231 266 5,800 -960 Descending Boston Center
01:45PM 41.3192 -71.5114 48° Northeast 225 259 4,900 -960 Descending Boston Center
01:46PM 41.3603 -71.4500 48° Northeast 222 255 3,900 -960 Descending Boston Center
01:47PM 41.3992 -71.3858 51° Northeast 224 258 3,000 -480 Descending Boston Center
01:48PM 41.4361 -71.3269 50° Northeast 224 258 3,000  Level Boston Center
01:49PM 41.4833 -71.2569 48° Northeast 217 250 3,000  Level Boston Center
01:50PM 41.5225 -71.2033 46° Northeast 209 241 3,000 -300 Level Boston Center
01:51PM 41.5764 -71.1747 22° Northeast 216 249 2,400 -420 Descending Boston Center
01:52PM 41.6153 -71.1211 46° Northeast 205 236 2,200 -360 Descending Boston Center
01:53PM 41.6500 -71.0647 50° Northeast 188 216 1,700 -540 Descending Boston Center
01:54PM 41.6808 -71.0281 42° Northeast 170 196 1,200 -660 Descending Boston Center
01:55PM 41.6886 -70.9806 78° East 120 138 400 -720 Descending Boston Center
01:57PM 41.6766 -70.9578 51° Northeast  Level Estimated
02:04PM 41.6766 -70.9578 51° Northeast  Level Estimated
02:05PM 41.6766 -70.9578 51° Northeast  Level Estimated
02:06PM 41.6766 -70.9578 51° Northeast  Level Estimated
02:07PM 41.6766 -70.9578 51° Northeast  Level Estimated